sensor_id;sensor_type;location;lat;lon;timestamp;pressure;altitude;pressure_sealevel;temperature;humidity
11515;BME280;5814;41.936;25.556;2024-03-02T00:02:01;98861.88;;;10.26;100.00
11515;BME280;5814;41.936;25.556;2024-03-02T00:04:26;98856.06;;;9.86;100.00
11515;BME280;5814;41.936;25.556;2024-03-02T00:06:52;98866.84;;;9.74;100.00
11515;BME280;5814;41.936;25.556;2024-03-02T00:09:21;98851.00;;;9.82;100.00
11515;BME280;5814;41.936;25.556;2024-03-02T00:11:47;98848.06;;;9.94;100.00
11515;BME280;5814;41.936;25.556;2024-03-02T00:14:12;98843.59;;;9.97;100.00
11515;BME280;5814;41.936;25.556;2024-03-02T00:16:38;98854.13;;;9.63;100.00
11515;BME280;5814;41.936;25.556;2024-03-02T00:19:04;98838.72;;;9.55;100.00
11515;BME280;5814;41.936;25.556;2024-03-02T00:21:31;98827.72;;;9.77;100.00
11515;BME280;5814;41.936;25.556;2024-03-02T00:23:57;98837.81;;;9.88;100.00
11515;BME280;5814;41.936;25.556;2024-03-02T00:26:23;98833.06;;;9.71;100.00
11515;BME280;5814;41.936;25.556;2024-03-02T00:28:48;98833.75;;;10.07;100.00
11515;BME280;5814;41.936;25.556;2024-03-02T00:31:16;98831.91;;;10.11;100.00
11515;BME280;5814;41.936;25.556;2024-03-02T00:33:46;98827.91;;;10.29;100.00
11515;BME280;5814;41.936;25.556;2024-03-02T00:36:14;98839.38;;;9.93;100.00
11515;BME280;5814;41.936;25.556;2024-03-02T00:38:50;98837.34;;;9.73;100.00
11515;BME280;5814;41.936;25.556;2024-03-02T00:41:25;98820.47;;;10.15;100.00
11515;BME280;5814;41.936;25.556;2024-03-02T00:46:19;98800.16;;;10.54;100.00
11515;BME280;5814;41.936;25.556;2024-03-02T00:48:55;98820.13;;;9.97;100.00
11515;BME280;5814;41.936;25.556;2024-03-02T00:51:25;98827.84;;;9.72;100.00
11515;BME280;5814;41.936;25.556;2024-03-02T00:53:52;98816.59;;;9.70;100.00
11515;BME280;5814;41.936;25.556;2024-03-02T00:56:21;98819.81;;;9.49;100.00
11515;BME280;5814;41.936;25.556;2024-03-02T00:58:46;98821.00;;;9.68;100.00
11515;BME280;5814;41.936;25.556;2024-03-02T01:01:12;98819.84;;;9.47;100.00
11515;BME280;5814;41.936;25.556;2024-03-02T01:03:37;98812.41;;;9.65;100.00
11515;BME280;5814;41.936;25.556;2024-03-02T01:06:04;98796.81;;;9.93;100.00
11515;BME280;5814;41.936;25.556;2024-03-02T01:08:30;98808.88;;;9.97;100.00
11515;BME280;5814;41.936;25.556;2024-03-02T01:10:56;98821.25;;;10.18;100.00
11515;BME280;5814;41.936;25.556;2024-03-02T01:13:22;98808.56;;;10.36;100.00
11515;BME280;5814;41.936;25.556;2024-03-02T01:15:48;98822.31;;;10.13;100.00
11515;BME280;5814;41.936;25.556;2024-03-02T01:18:14;98831.97;;;10.09;100.00
11515;BME280;5814;41.936;25.556;2024-03-02T01:20:40;98828.81;;;10.28;100.00
11515;BME280;5814;41.936;25.556;2024-03-02T01:23:06;98817.50;;;10.29;100.00
11515;BME280;5814;41.936;25.556;2024-03-02T01:25:31;98825.41;;;10.54;100.00
11515;BME280;5814;41.936;25.556;2024-03-02T01:27:57;98819.31;;;10.53;100.00
11515;BME280;5814;41.936;25.556;2024-03-02T01:30:22;98817.06;;;10.69;100.00
11515;BME280;5814;41.936;25.556;2024-03-02T01:32:47;98820.19;;;10.80;100.00
11515;BME280;5814;41.936;25.556;2024-03-02T01:35:13;98815.22;;;10.73;100.00
11515;BME280;5814;41.936;25.556;2024-03-02T01:37:41;98811.03;;;10.94;100.00
11515;BME280;5814;41.936;25.556;2024-03-02T01:40:07;98808.44;;;10.67;100.00
11515;BME280;5814;41.936;25.556;2024-03-02T01:42:38;98810.19;;;10.67;100.00
11515;BME280;5814;41.936;25.556;2024-03-02T01:45:08;98805.50;;;10.51;100.00
11515;BME280;5814;41.936;25.556;2024-03-02T01:47:34;98801.72;;;10.60;100.00
11515;BME280;5814;41.936;25.556;2024-03-02T01:50:00;98801.06;;;10.53;100.00
11515;BME280;5814;41.936;25.556;2024-03-02T01:52:26;98794.72;;;10.34;100.00
11515;BME280;5814;41.936;25.556;2024-03-02T01:54:52;98797.16;;;10.10;100.00
11515;BME280;5814;41.936;25.556;2024-03-02T01:57:18;98795.75;;;10.30;100.00
11515;BME280;5814;41.936;25.556;2024-03-02T01:59:43;98781.44;;;10.13;100.00
11515;BME280;5814;41.936;25.556;2024-03-02T02:02:09;98798.41;;;9.98;100.00
11515;BME280;5814;41.936;25.556;2024-03-02T02:04:35;98804.38;;;10.02;100.00
11515;BME280;5814;41.936;25.556;2024-03-02T02:07:01;98792.88;;;9.79;100.00
11515;BME280;5814;41.936;25.556;2024-03-02T02:09:26;98796.00;;;9.63;100.00
11515;BME280;5814;41.936;25.556;2024-03-02T02:11:52;98788.38;;;9.55;100.00
11515;BME280;5814;41.936;25.556;2024-03-02T02:14:17;98799.25;;;9.69;100.00
11515;BME280;5814;41.936;25.556;2024-03-02T02:16:43;98793.53;;;9.86;100.00
11515;BME280;5814;41.936;25.556;2024-03-02T02:19:09;98789.53;;;9.74;100.00
11515;BME280;5814;41.936;25.556;2024-03-02T02:21:35;98801.78;;;10.00;100.00
11515;BME280;5814;41.936;25.556;2024-03-02T02:24:01;98791.34;;;10.02;100.00
11515;BME280;5814;41.936;25.556;2024-03-02T02:26:29;98775.16;;;9.91;100.00
11515;BME280;5814;41.936;25.556;2024-03-02T02:28:55;98793.78;;;10.08;100.00
11515;BME280;5814;41.936;25.556;2024-03-02T02:31:20;98784.75;;;10.18;100.00
11515;BME280;5814;41.936;25.556;2024-03-02T02:33:46;98788.25;;;9.89;100.00
11515;BME280;5814;41.936;25.556;2024-03-02T02:36:12;98793.56;;;9.55;100.00
11515;BME280;5814;41.936;25.556;2024-03-02T02:38:40;98794.53;;;9.82;100.00
11515;BME280;5814;41.936;25.556;2024-03-02T02:41:06;98780.94;;;9.72;100.00
11515;BME280;5814;41.936;25.556;2024-03-02T02:43:31;98788.06;;;9.66;100.00
11515;BME280;5814;41.936;25.556;2024-03-02T02:45:57;98786.09;;;9.44;100.00
11515;BME280;5814;41.936;25.556;2024-03-02T02:48:22;98775.28;;;9.27;100.00
11515;BME280;5814;41.936;25.556;2024-03-02T02:50:48;98790.94;;;9.56;100.00
11515;BME280;5814;41.936;25.556;2024-03-02T02:53:13;98782.47;;;10.08;100.00
11515;BME280;5814;41.936;25.556;2024-03-02T02:55:39;98786.53;;;9.88;100.00
11515;BME280;5814;41.936;25.556;2024-03-02T02:58:08;98778.00;;;9.83;100.00
11515;BME280;5814;41.936;25.556;2024-03-02T03:00:33;98782.38;;;10.11;100.00
11515;BME280;5814;41.936;25.556;2024-03-02T03:02:59;98778.09;;;9.80;100.00
11515;BME280;5814;41.936;25.556;2024-03-02T03:05:24;98782.06;;;9.64;100.00
11515;BME280;5814;41.936;25.556;2024-03-02T03:07:50;98777.97;;;9.85;100.00
11515;BME280;5814;41.936;25.556;2024-03-02T03:10:16;98770.38;;;9.77;100.00
11515;BME280;5814;41.936;25.556;2024-03-02T03:12:42;98774.78;;;9.75;100.00
11515;BME280;5814;41.936;25.556;2024-03-02T03:15:09;98781.69;;;10.06;100.00
11515;BME280;5814;41.936;25.556;2024-03-02T03:17:35;98770.47;;;9.44;100.00
11515;BME280;5814;41.936;25.556;2024-03-02T03:20:03;98792.75;;;9.84;100.00
11515;BME280;5814;41.936;25.556;2024-03-02T03:22:30;98783.25;;;10.11;100.00
11515;BME280;5814;41.936;25.556;2024-03-02T03:24:56;98778.34;;;10.00;100.00
11515;BME280;5814;41.936;25.556;2024-03-02T03:27:22;98782.81;;;9.97;100.00
11515;BME280;5814;41.936;25.556;2024-03-02T03:29:47;98767.97;;;9.99;100.00
11515;BME280;5814;41.936;25.556;2024-03-02T03:32:13;98791.03;;;10.13;100.00
11515;BME280;5814;41.936;25.556;2024-03-02T03:34:39;98793.09;;;9.72;100.00
11515;BME280;5814;41.936;25.556;2024-03-02T03:37:04;98786.06;;;9.75;100.00
11515;BME280;5814;41.936;25.556;2024-03-02T03:39:30;98777.44;;;9.73;100.00
11515;BME280;5814;41.936;25.556;2024-03-02T03:41:55;98782.38;;;9.83;100.00
11515;BME280;5814;41.936;25.556;2024-03-02T03:44:21;98780.50;;;10.16;100.00
11515;BME280;5814;41.936;25.556;2024-03-02T03:46:46;98786.66;;;10.13;100.00
11515;BME280;5814;41.936;25.556;2024-03-02T03:49:12;98781.78;;;10.31;100.00
11515;BME280;5814;41.936;25.556;2024-03-02T03:51:37;98780.69;;;10.64;100.00
11515;BME280;5814;41.936;25.556;2024-03-02T03:54:03;98773.88;;;10.06;100.00
11515;BME280;5814;41.936;25.556;2024-03-02T03:56:28;98768.34;;;10.15;100.00
11515;BME280;5814;41.936;25.556;2024-03-02T03:58:54;98769.78;;;9.97;100.00
11515;BME280;5814;41.936;25.556;2024-03-02T04:01:19;98765.56;;;10.49;100.00
11515;BME280;5814;41.936;25.556;2024-03-02T04:03:45;98758.16;;;10.07;100.00
11515;BME280;5814;41.936;25.556;2024-03-02T04:06:10;98747.31;;;9.93;100.00
11515;BME280;5814;41.936;25.556;2024-03-02T04:08:36;98754.97;;;10.26;100.00
11515;BME280;5814;41.936;25.556;2024-03-02T04:11:02;98774.19;;;10.23;100.00
11515;BME280;5814;41.936;25.556;2024-03-02T04:13:28;98764.59;;;10.52;100.00
11515;BME280;5814;41.936;25.556;2024-03-02T04:15:53;98778.03;;;10.11;100.00
11515;BME280;5814;41.936;25.556;2024-03-02T04:18:19;98781.34;;;10.16;100.00
11515;BME280;5814;41.936;25.556;2024-03-02T04:20:44;98778.56;;;10.22;100.00
11515;BME280;5814;41.936;25.556;2024-03-02T04:23:10;98773.56;;;9.87;100.00
11515;BME280;5814;41.936;25.556;2024-03-02T04:25:35;98780.19;;;9.97;100.00
11515;BME280;5814;41.936;25.556;2024-03-02T04:28:01;98774.66;;;10.36;100.00
11515;BME280;5814;41.936;25.556;2024-03-02T04:30:26;98783.00;;;10.74;100.00
11515;BME280;5814;41.936;25.556;2024-03-02T04:32:52;98779.56;;;10.47;100.00
11515;BME280;5814;41.936;25.556;2024-03-02T04:35:17;98778.38;;;10.29;100.00
11515;BME280;5814;41.936;25.556;2024-03-02T04:37:43;98783.97;;;10.71;100.00
11515;BME280;5814;41.936;25.556;2024-03-02T04:40:09;98781.69;;;10.34;100.00
11515;BME280;5814;41.936;25.556;2024-03-02T04:42:35;98782.34;;;10.67;100.00
11515;BME280;5814;41.936;25.556;2024-03-02T04:45:01;98784.47;;;10.82;100.00
11515;BME280;5814;41.936;25.556;2024-03-02T04:47:27;98771.84;;;10.95;100.00
11515;BME280;5814;41.936;25.556;2024-03-02T04:49:53;98780.75;;;10.90;100.00
11515;BME280;5814;41.936;25.556;2024-03-02T04:52:18;98784.81;;;10.72;100.00
11515;BME280;5814;41.936;25.556;2024-03-02T04:54:44;98779.44;;;10.50;100.00
11515;BME280;5814;41.936;25.556;2024-03-02T04:57:28;98756.69;;;11.05;100.00
11515;BME280;5814;41.936;25.556;2024-03-02T04:59:53;98775.47;;;10.64;100.00
11515;BME280;5814;41.936;25.556;2024-03-02T05:02:19;98780.34;;;10.20;100.00
11515;BME280;5814;41.936;25.556;2024-03-02T05:04:44;98745.50;;;10.23;100.00
11515;BME280;5814;41.936;25.556;2024-03-02T05:07:10;98782.97;;;10.20;100.00
11515;BME280;5814;41.936;25.556;2024-03-02T05:09:36;98772.41;;;10.23;100.00
11515;BME280;5814;41.936;25.556;2024-03-02T05:12:01;98791.72;;;10.18;100.00
11515;BME280;5814;41.936;25.556;2024-03-02T05:14:36;98771.97;;;10.11;100.00
11515;BME280;5814;41.936;25.556;2024-03-02T05:17:02;98796.34;;;9.80;100.00
11515;BME280;5814;41.936;25.556;2024-03-02T05:19:28;98795.75;;;9.70;100.00
11515;BME280;5814;41.936;25.556;2024-03-02T05:21:53;98773.00;;;10.05;100.00
11515;BME280;5814;41.936;25.556;2024-03-02T05:24:19;98773.75;;;10.09;100.00
11515;BME280;5814;41.936;25.556;2024-03-02T05:26:44;98791.72;;;10.18;100.00
11515;BME280;5814;41.936;25.556;2024-03-02T05:29:10;98792.63;;;10.17;100.00
11515;BME280;5814;41.936;25.556;2024-03-02T05:31:35;98769.19;;;10.43;100.00
11515;BME280;5814;41.936;25.556;2024-03-02T05:34:01;98785.41;;;10.25;100.00
11515;BME280;5814;41.936;25.556;2024-03-02T05:36:26;98763.34;;;10.37;100.00
11515;BME280;5814;41.936;25.556;2024-03-02T05:38:52;98792.38;;;10.25;100.00
11515;BME280;5814;41.936;25.556;2024-03-02T05:41:17;98780.38;;;10.19;100.00
11515;BME280;5814;41.936;25.556;2024-03-02T05:43:43;98785.81;;;10.13;100.00
11515;BME280;5814;41.936;25.556;2024-03-02T05:46:08;98777.06;;;10.14;100.00
11515;BME280;5814;41.936;25.556;2024-03-02T05:48:34;98787.44;;;9.87;100.00
11515;BME280;5814;41.936;25.556;2024-03-02T05:50:59;98808.25;;;10.17;100.00
11515;BME280;5814;41.936;25.556;2024-03-02T05:53:25;98809.94;;;10.48;100.00
11515;BME280;5814;41.936;25.556;2024-03-02T05:55:50;98825.47;;;9.93;100.00
11515;BME280;5814;41.936;25.556;2024-03-02T05:58:20;98812.34;;;10.26;100.00
11515;BME280;5814;41.936;25.556;2024-03-02T06:00:46;98808.66;;;10.61;100.00
11515;BME280;5814;41.936;25.556;2024-03-02T06:03:11;98806.13;;;10.58;100.00
11515;BME280;5814;41.936;25.556;2024-03-02T06:05:37;98800.91;;;10.84;100.00
11515;BME280;5814;41.936;25.556;2024-03-02T06:08:02;98790.41;;;10.33;100.00
11515;BME280;5814;41.936;25.556;2024-03-02T06:10:28;98788.84;;;10.27;100.00
11515;BME280;5814;41.936;25.556;2024-03-02T06:12:53;98800.16;;;10.54;100.00
11515;BME280;5814;41.936;25.556;2024-03-02T06:15:19;98818.19;;;10.34;100.00
11515;BME280;5814;41.936;25.556;2024-03-02T06:17:45;98803.47;;;10.59;100.00
11515;BME280;5814;41.936;25.556;2024-03-02T06:20:10;98799.31;;;11.05;100.00
11515;BME280;5814;41.936;25.556;2024-03-02T06:22:36;98795.81;;;11.06;100.00
11515;BME280;5814;41.936;25.556;2024-03-02T06:25:02;98802.88;;;11.03;100.00
11515;BME280;5814;41.936;25.556;2024-03-02T06:27:27;98810.59;;;11.06;100.00
11515;BME280;5814;41.936;25.556;2024-03-02T06:29:53;98792.53;;;10.75;100.00
11515;BME280;5814;41.936;25.556;2024-03-02T06:32:20;98796.16;;;10.44;100.00
11515;BME280;5814;41.936;25.556;2024-03-02T06:34:45;98761.28;;;10.18;100.00
11515;BME280;5814;41.936;25.556;2024-03-02T06:37:11;98794.53;;;10.40;100.00
11515;BME280;5814;41.936;25.556;2024-03-02T06:39:36;98796.53;;;10.32;100.00
11515;BME280;5814;41.936;25.556;2024-03-02T06:42:02;98811.19;;;10.36;100.00
11515;BME280;5814;41.936;25.556;2024-03-02T06:44:27;98800.97;;;10.30;100.00
11515;BME280;5814;41.936;25.556;2024-03-02T06:46:53;98799.66;;;10.43;100.00
11515;BME280;5814;41.936;25.556;2024-03-02T06:49:19;98803.63;;;10.55;100.00
11515;BME280;5814;41.936;25.556;2024-03-02T06:51:44;98792.78;;;10.67;100.00
11515;BME280;5814;41.936;25.556;2024-03-02T06:54:10;98807.47;;;10.96;100.00
11515;BME280;5814;41.936;25.556;2024-03-02T06:56:35;98804.06;;;10.94;100.00
11515;BME280;5814;41.936;25.556;2024-03-02T06:59:01;98818.09;;;11.17;100.00
11515;BME280;5814;41.936;25.556;2024-03-02T07:01:26;98818.41;;;11.33;100.00
11515;BME280;5814;41.936;25.556;2024-03-02T07:03:53;98807.88;;;11.34;100.00
11515;BME280;5814;41.936;25.556;2024-03-02T07:06:19;98816.09;;;11.48;100.00
11515;BME280;5814;41.936;25.556;2024-03-02T07:08:44;98812.81;;;10.67;100.00
11515;BME280;5814;41.936;25.556;2024-03-02T07:11:10;98818.31;;;10.84;100.00
11515;BME280;5814;41.936;25.556;2024-03-02T07:13:35;98812.91;;;10.63;100.00
11515;BME280;5814;41.936;25.556;2024-03-02T07:16:01;98803.59;;;10.56;100.00
11515;BME280;5814;41.936;25.556;2024-03-02T07:18:26;98795.28;;;10.97;100.00
11515;BME280;5814;41.936;25.556;2024-03-02T07:20:52;98789.94;;;11.00;100.00
11515;BME280;5814;41.936;25.556;2024-03-02T07:23:17;98777.84;;;11.22;100.00
11515;BME280;5814;41.936;25.556;2024-03-02T07:25:43;98793.59;;;11.44;100.00
11515;BME280;5814;41.936;25.556;2024-03-02T07:28:08;98804.84;;;11.23;100.00
11515;BME280;5814;41.936;25.556;2024-03-02T07:30:34;98798.53;;;10.77;100.00
11515;BME280;5814;41.936;25.556;2024-03-02T07:32:59;98793.13;;;10.83;100.00
11515;BME280;5814;41.936;25.556;2024-03-02T07:35:25;98806.63;;;11.21;100.00
11515;BME280;5814;41.936;25.556;2024-03-02T07:37:54;98811.34;;;11.60;100.00
11515;BME280;5814;41.936;25.556;2024-03-02T07:40:20;98815.72;;;11.34;100.00
11515;BME280;5814;41.936;25.556;2024-03-02T07:42:46;98818.25;;;10.87;100.00
11515;BME280;5814;41.936;25.556;2024-03-02T07:45:11;98807.16;;;11.05;100.00
11515;BME280;5814;41.936;25.556;2024-03-02T07:47:37;98795.38;;;11.19;100.00
11515;BME280;5814;41.936;25.556;2024-03-02T07:50:03;98813.97;;;11.10;100.00
11515;BME280;5814;41.936;25.556;2024-03-02T07:52:32;98800.00;;;11.11;100.00
11515;BME280;5814;41.936;25.556;2024-03-02T07:54:57;98797.00;;;11.23;100.00
11515;BME280;5814;41.936;25.556;2024-03-02T07:57:23;98779.19;;;11.58;100.00
11515;BME280;5814;41.936;25.556;2024-03-02T07:59:48;98775.81;;;11.78;100.00
11515;BME280;5814;41.936;25.556;2024-03-02T08:02:14;98789.59;;;11.59;100.00
11515;BME280;5814;41.936;25.556;2024-03-02T08:04:40;98790.75;;;11.50;100.00
11515;BME280;5814;41.936;25.556;2024-03-02T08:07:06;98776.22;;;11.67;100.00
11515;BME280;5814;41.936;25.556;2024-03-02T08:09:32;98794.84;;;11.58;100.00
11515;BME280;5814;41.936;25.556;2024-03-02T08:11:57;98806.69;;;11.91;100.00
11515;BME280;5814;41.936;25.556;2024-03-02T08:14:25;59044.91;;;-145.99;100.00
11515;BME280;5814;41.936;25.556;2024-03-02T08:17:21;59044.91;;;-145.99;100.00
11515;BME280;5814;41.936;25.556;2024-03-02T08:20:34;59044.91;;;-145.99;100.00
11515;BME280;5814;41.936;25.556;2024-03-02T08:22:59;59044.91;;;-145.99;100.00
11515;BME280;5814;41.936;25.556;2024-03-02T08:26:13;59044.91;;;-145.99;100.00
11515;BME280;5814;41.936;25.556;2024-03-02T08:29:37;59044.91;;;-145.99;100.00
11515;BME280;5814;41.936;25.556;2024-03-02T08:32:59;59044.91;;;-145.99;100.00
11515;BME280;5814;41.936;25.556;2024-03-02T08:36:23;59044.91;;;-145.99;100.00
11515;BME280;5814;41.936;25.556;2024-03-02T08:39:48;59044.91;;;-145.99;100.00
11515;BME280;5814;41.936;25.556;2024-03-02T08:42:13;59044.91;;;-145.99;100.00
11515;BME280;5814;41.936;25.556;2024-03-02T08:44:39;59044.91;;;-145.99;100.00
11515;BME280;5814;41.936;25.556;2024-03-02T08:47:04;59044.91;;;-145.99;100.00
11515;BME280;5814;41.936;25.556;2024-03-02T08:49:30;59044.91;;;-145.99;100.00
11515;BME280;5814;41.936;25.556;2024-03-02T08:51:55;59044.91;;;-145.99;100.00
11515;BME280;5814;41.936;25.556;2024-03-02T08:54:23;98806.69;;;-145.94;100.00
11515;BME280;5814;41.936;25.556;2024-03-02T08:56:49;98819.03;;;12.98;100.00
11515;BME280;5814;41.936;25.556;2024-03-02T08:59:15;59044.91;;;-145.99;100.00
11515;BME280;5814;41.936;25.556;2024-03-02T09:01:41;59044.91;;;-145.99;100.00
11515;BME280;5814;41.936;25.556;2024-03-02T09:04:07;98812.69;;;13.24;100.00
11515;BME280;5814;41.936;25.556;2024-03-02T09:06:36;98811.00;;;13.44;100.00
11515;BME280;5814;41.936;25.556;2024-03-02T09:09:02;98814.97;;;13.52;100.00
11515;BME280;5814;41.936;25.556;2024-03-02T09:11:28;98808.75;;;13.55;100.00
11515;BME280;5814;41.936;25.556;2024-03-02T09:13:54;98817.25;;;13.41;100.00
11515;BME280;5814;41.936;25.556;2024-03-02T09:16:21;98817.16;;;13.43;100.00
11515;BME280;5814;41.936;25.556;2024-03-02T09:18:46;98799.28;;;13.32;100.00
11515;BME280;5814;41.936;25.556;2024-03-02T09:21:12;98799.75;;;13.42;100.00
11515;BME280;5814;41.936;25.556;2024-03-02T09:23:38;98792.69;;;13.63;100.00
11515;BME280;5814;41.936;25.556;2024-03-02T09:26:05;98806.03;;;13.37;100.00
11515;BME280;5814;41.936;25.556;2024-03-02T09:28:30;98799.28;;;13.32;100.00
11515;BME280;5814;41.936;25.556;2024-03-02T09:30:56;98800.22;;;13.70;100.00
11515;BME280;5814;41.936;25.556;2024-03-02T09:33:21;98797.22;;;13.78;100.00
11515;BME280;5814;41.936;25.556;2024-03-02T09:35:47;98794.81;;;13.73;100.00
11515;BME280;5814;41.936;25.556;2024-03-02T09:38:14;98798.19;;;13.56;100.00
11515;BME280;5814;41.936;25.556;2024-03-02T09:40:41;98790.47;;;13.53;100.00
11515;BME280;5814;41.936;25.556;2024-03-02T09:43:07;98776.34;;;13.37;100.00
11515;BME280;5814;41.936;25.556;2024-03-02T09:45:32;98750.63;;;13.45;100.00
11515;BME280;5814;41.936;25.556;2024-03-02T09:47:59;98764.72;;;13.43;100.00
11515;BME280;5814;41.936;25.556;2024-03-02T09:50:24;98783.03;;;13.44;100.00
11515;BME280;5814;41.936;25.556;2024-03-02T09:52:50;98786.88;;;13.75;100.00
11515;BME280;5814;41.936;25.556;2024-03-02T09:55:18;98778.59;;;13.84;100.00
11515;BME280;5814;41.936;25.556;2024-03-02T09:57:45;98793.34;;;13.68;100.00
11515;BME280;5814;41.936;25.556;2024-03-02T10:00:11;59044.91;;;-145.99;100.00
11515;BME280;5814;41.936;25.556;2024-03-02T10:02:40;98797.66;;;13.69;100.00
11515;BME280;5814;41.936;25.556;2024-03-02T10:05:07;98796.22;;;13.61;100.00
11515;BME280;5814;41.936;25.556;2024-03-02T10:07:33;98802.25;;;13.64;100.00
11515;BME280;5814;41.936;25.556;2024-03-02T10:10:12;98803.53;;;13.34;100.00
11515;BME280;5814;41.936;25.556;2024-03-02T10:12:38;98796.06;;;13.46;100.00
11515;BME280;5814;41.936;25.556;2024-03-02T10:15:04;98808.25;;;13.47;100.00
11515;BME280;5814;41.936;25.556;2024-03-02T10:17:31;98791.16;;;13.17;100.00
11515;BME280;5814;41.936;25.556;2024-03-02T10:19:56;98798.56;;;13.28;100.00
11515;BME280;5814;41.936;25.556;2024-03-02T10:22:23;98794.28;;;13.26;100.00
11515;BME280;5814;41.936;25.556;2024-03-02T10:24:49;98785.69;;;13.43;100.00
11515;BME280;5814;41.936;25.556;2024-03-02T10:27:22;98787.72;;;13.36;100.00
11515;BME280;5814;41.936;25.556;2024-03-02T10:29:48;98783.91;;;13.64;100.00
11515;BME280;5814;41.936;25.556;2024-03-02T10:32:14;98773.69;;;13.76;100.00
11515;BME280;5814;41.936;25.556;2024-03-02T10:34:41;98784.16;;;13.57;100.00
11515;BME280;5814;41.936;25.556;2024-03-02T10:37:07;98790.81;;;13.65;100.00
11515;BME280;5814;41.936;25.556;2024-03-02T10:39:36;98717.03;;;12.95;100.00
11515;BME280;5814;41.936;25.556;2024-03-02T10:42:02;98777.06;;;13.20;100.00
11515;BME280;5814;41.936;25.556;2024-03-02T10:44:30;98776.97;;;13.22;100.00
11515;BME280;5814;41.936;25.556;2024-03-02T10:46:56;98765.75;;;13.19;100.00
11515;BME280;5814;41.936;25.556;2024-03-02T10:49:23;98769.00;;;13.25;100.00
11515;BME280;5814;41.936;25.556;2024-03-02T10:51:50;98753.03;;;13.10;100.00
11515;BME280;5814;41.936;25.556;2024-03-02T10:54:16;98747.13;;;13.26;100.00
11515;BME280;5814;41.936;25.556;2024-03-02T10:56:44;98761.69;;;13.33;100.00
11515;BME280;5814;41.936;25.556;2024-03-02T11:01:43;98757.47;;;13.29;100.00
11515;BME280;5814;41.936;25.556;2024-03-02T11:04:09;98761.28;;;13.42;100.00
11515;BME280;5814;41.936;25.556;2024-03-02T11:06:37;98754.06;;;13.27;100.00
11515;BME280;5814;41.936;25.556;2024-03-02T11:09:07;59044.91;;;-145.99;100.00
11515;BME280;5814;41.936;25.556;2024-03-02T11:11:39;98748.53;;;13.34;100.00
11515;BME280;5814;41.936;25.556;2024-03-02T11:14:07;98746.22;;;13.06;100.00
11515;BME280;5814;41.936;25.556;2024-03-02T11:16:37;98725.53;;;12.59;100.00
11515;BME280;5814;41.936;25.556;2024-03-02T11:19:06;98751.03;;;12.54;100.00
11515;BME280;5814;41.936;25.556;2024-03-02T11:21:35;98732.56;;;12.79;100.00
11515;BME280;5814;41.936;25.556;2024-03-02T11:26:52;98742.03;;;13.02;100.00
11515;BME280;5814;41.936;25.556;2024-03-02T11:32:03;98752.19;;;13.10;100.00
11515;BME280;5814;41.936;25.556;2024-03-02T11:34:30;98744.47;;;12.86;100.00
11515;BME280;5814;41.936;25.556;2024-03-02T11:36:57;98747.00;;;12.88;100.00
11515;BME280;5814;41.936;25.556;2024-03-02T11:39:25;98740.09;;;12.87;100.00
11515;BME280;5814;41.936;25.556;2024-03-02T11:41:51;98739.16;;;12.88;100.00
11515;BME280;5814;41.936;25.556;2024-03-02T11:44:17;98734.44;;;12.75;100.00
11515;BME280;5814;41.936;25.556;2024-03-02T11:46:45;98748.53;;;12.93;100.00
11515;BME280;5814;41.936;25.556;2024-03-02T11:49:14;98750.47;;;12.68;100.00
11515;BME280;5814;41.936;25.556;2024-03-02T11:51:53;98736.88;;;12.60;100.00
11515;BME280;5814;41.936;25.556;2024-03-02T11:54:27;98748.66;;;12.70;100.00
11515;BME280;5814;41.936;25.556;2024-03-02T11:56:56;98744.72;;;12.80;100.00
11515;BME280;5814;41.936;25.556;2024-03-02T11:59:22;98741.53;;;12.94;100.00
11515;BME280;5814;41.936;25.556;2024-03-02T12:01:49;98735.34;;;12.95;100.00
11515;BME280;5814;41.936;25.556;2024-03-02T12:04:15;98737.72;;;12.81;100.00
11515;BME280;5814;41.936;25.556;2024-03-02T12:06:40;98728.59;;;12.69;100.00
11515;BME280;5814;41.936;25.556;2024-03-02T12:09:09;98742.50;;;12.71;100.00
11515;BME280;5814;41.936;25.556;2024-03-02T12:11:37;98732.53;;;12.99;100.00
11515;BME280;5814;41.936;25.556;2024-03-02T12:14:02;98726.91;;;13.09;100.00
11515;BME280;5814;41.936;25.556;2024-03-02T12:16:29;98731.28;;;13.29;100.00
11515;BME280;5814;41.936;25.556;2024-03-02T12:18:55;98731.44;;;13.05;100.00
11515;BME280;5814;41.936;25.556;2024-03-02T12:21:21;98734.97;;;12.63;100.00
11515;BME280;5814;41.936;25.556;2024-03-02T12:23:46;98728.75;;;12.86;100.00
11515;BME280;5814;41.936;25.556;2024-03-02T12:26:12;98722.59;;;12.87;100.00
11515;BME280;5814;41.936;25.556;2024-03-02T12:28:38;98728.66;;;12.47;100.00
11515;BME280;5814;41.936;25.556;2024-03-02T12:31:03;98725.41;;;12.83;100.00
11515;BME280;5814;41.936;25.556;2024-03-02T12:33:29;98715.53;;;12.69;100.00
11515;BME280;5814;41.936;25.556;2024-03-02T12:35:57;98724.03;;;13.15;100.00
11515;BME280;5814;41.936;25.556;2024-03-02T12:38:22;98725.00;;;12.51;100.00
11515;BME280;5814;41.936;25.556;2024-03-02T12:40:51;98734.91;;;12.65;100.00
11515;BME280;5814;41.936;25.556;2024-03-02T12:43:17;98732.44;;;13.22;100.00
11515;BME280;5814;41.936;25.556;2024-03-02T12:45:43;98716.72;;;13.42;100.00
11515;BME280;5814;41.936;25.556;2024-03-02T12:48:09;98729.34;;;13.53;100.00
11515;BME280;5814;41.936;25.556;2024-03-02T12:50:35;98723.78;;;13.40;100.00
11515;BME280;5814;41.936;25.556;2024-03-02T12:53:00;98707.38;;;13.55;100.00
11515;BME280;5814;41.936;25.556;2024-03-02T12:55:26;98725.66;;;13.17;100.00
11515;BME280;5814;41.936;25.556;2024-03-02T12:57:54;98722.78;;;13.03;100.00
11515;BME280;5814;41.936;25.556;2024-03-02T13:00:20;98736.28;;;12.94;100.00
11515;BME280;5814;41.936;25.556;2024-03-02T13:02:47;98736.41;;;12.91;100.00